Time;durP1;ratioP1;P1;durP2;ratioP2;P2;SDS_P1;SDS_P2;PMS_P1;PMS_P2;Temp;Humidity;BMP_temperature;BMP_pressure;BME280_temperature;BME280_humidity;BME280_pressure;Samples;Min_cycle;Max_cycle;Signal;HPM_P1;HPM_P2
2021/07/02 00:00:52;;;;;;;;;;;15.20;99.90;;;;;;4997050;28;19920;-81
2021/07/02 00:03:18;;;;;;;;;;;15.10;99.90;;;;;;4998398;28;19922;-81
2021/07/02 00:05:43;;;;;;;;;;;15.10;99.90;;;;;;5015100;28;20397;-82
2021/07/02 00:08:09;;;;;;;;;;;15.00;99.90;;;;;;5000777;28;20004;-81
2021/07/02 00:10:34;;;;;;;;;;;15.00;99.90;;;;;;5015768;28;19922;-81
2021/07/02 00:13:00;;;;;;;;;;;15.00;99.90;;;;;;4999858;28;19921;-81
2021/07/02 00:15:25;;;;;;;;;;;14.90;99.90;;;;;;5016741;28;20424;-80
2021/07/02 00:17:51;;;;;;;;;;;14.90;99.90;;;;;;4999707;28;19918;-80
2021/07/02 00:20:16;;;;;;;;;;;14.90;99.90;;;;;;4999720;28;19953;-81
2021/07/02 00:22:42;;;;;;;;;;;14.90;99.90;;;;;;5000038;28;20290;-80
2021/07/02 00:25:08;;;;;;;;;;;14.90;99.90;;;;;;5000167;28;19968;-80
2021/07/02 00:27:33;;;;;;;;;;;14.90;99.90;;;;;;5000641;28;19910;-82
2021/07/02 00:29:59;;;;;;;;;;;14.90;99.90;;;;;;5000196;28;19913;-81
2021/07/02 00:32:24;;;;;;;;;;;14.90;99.90;;;;;;4998349;28;19918;-81
2021/07/02 00:34:50;;;;;;;;;;;14.80;99.90;;;;;;5000495;28;20282;-81
2021/07/02 00:37:15;;;;;;;;;;;14.80;99.90;;;;;;5000243;28;19910;-81
2021/07/02 00:39:40;;;;;;;;;;;14.80;99.90;;;;;;5000591;28;19914;-80
2021/07/02 00:42:06;;;;;;;;;;;14.80;99.90;;;;;;4999651;28;19920;-81
2021/07/02 00:44:37;;;;;;;;;;;14.90;99.90;;;;;;5000743;28;19920;-81
2021/07/02 00:47:03;;;;;;;;;;;14.90;99.90;;;;;;5002575;28;19920;-80
2021/07/02 00:49:28;;;;;;;;;;;14.90;99.90;;;;;;5015007;28;20004;-81
2021/07/02 00:51:54;;;;;;;;;;;14.90;99.90;;;;;;4999129;28;19989;-80
2021/07/02 00:54:19;;;;;;;;;;;14.90;99.90;;;;;;5015870;28;19918;-80
2021/07/02 00:56:45;;;;;;;;;;;14.90;99.90;;;;;;5000340;28;20333;-81
2021/07/02 00:59:10;;;;;;;;;;;14.80;99.90;;;;;;5001054;28;19910;-82
2021/07/02 01:01:36;;;;;;;;;;;14.80;99.90;;;;;;5000232;28;19914;-80
2021/07/02 01:04:01;;;;;;;;;;;14.80;99.90;;;;;;4998592;28;19914;-81
2021/07/02 01:06:27;;;;;;;;;;;14.80;99.90;;;;;;5000331;28;19920;-81
2021/07/02 01:08:52;;;;;;;;;;;14.80;99.90;;;;;;5015108;28;19919;-80
2021/07/02 01:11:18;;;;;;;;;;;14.80;99.90;;;;;;5015054;28;19913;-80
2021/07/02 01:13:44;;;;;;;;;;;14.70;99.90;;;;;;5003612;28;20321;-82
2021/07/02 01:16:09;;;;;;;;;;;14.70;99.90;;;;;;4999001;28;20405;-82
2021/07/02 01:18:37;;;;;;;;;;;14.60;99.90;;;;;;5015810;28;19914;-81
2021/07/02 01:21:02;;;;;;;;;;;14.60;99.90;;;;;;5007579;28;19929;-80
2021/07/02 01:23:28;;;;;;;;;;;14.60;99.90;;;;;;4998699;28;19909;-79
2021/07/02 01:25:54;;;;;;;;;;;14.50;99.90;;;;;;4999863;28;19918;-81
2021/07/02 01:28:19;;;;;;;;;;;14.40;99.90;;;;;;4998729;28;19978;-81
2021/07/02 01:30:45;;;;;;;;;;;14.40;99.90;;;;;;4997175;28;19917;-81
2021/07/02 01:33:11;;;;;;;;;;;14.30;99.90;;;;;;5014472;28;20012;-80
2021/07/02 01:35:36;;;;;;;;;;;14.30;99.90;;;;;;5015593;28;20293;-80
2021/07/02 01:50:14;;;;;;;;;;;14.00;99.90;;;;;;4997629;28;19924;-80
2021/07/02 01:52:40;;;;;;;;;;;14.00;99.90;;;;;;4996507;28;20344;-80
2021/07/02 01:55:06;;;;;;;;;;;14.00;99.90;;;;;;5003568;28;19968;-80
2021/07/02 01:57:31;;;;;;;;;;;14.00;99.90;;;;;;4999011;28;19909;-80
2021/07/02 01:59:57;;;;;;;;;;;14.00;99.90;;;;;;5002104;28;19918;-81
2021/07/02 02:02:23;;;;;;;;;;;14.00;99.90;;;;;;4998586;28;19921;-81
2021/07/02 02:04:48;;;;;;;;;;;14.00;99.90;;;;;;5003090;28;19922;-81
2021/07/02 02:07:14;;;;;;;;;;;14.00;99.90;;;;;;4996993;28;19914;-81
2021/07/02 02:09:40;;;;;;;;;;;14.00;99.90;;;;;;4997198;28;20340;-80
2021/07/02 02:12:05;;;;;;;;;;;14.00;99.90;;;;;;4999715;28;19986;-81
2021/07/02 02:14:31;;;;;;;;;;;14.00;99.90;;;;;;5017574;28;19910;-81
2021/07/02 02:16:56;;;;;;;;;;;14.00;99.90;;;;;;4999097;28;19944;-81
2021/07/02 02:19:22;;;;;;;;;;;14.00;99.90;;;;;;5016357;28;20281;-80
2021/07/02 02:21:48;;;;;;;;;;;14.00;99.90;;;;;;4997958;28;19922;-80
2021/07/02 02:24:13;;;;;;;;;;;13.90;99.90;;;;;;5017044;28;19909;-80
2021/07/02 02:26:39;;;;;;;;;;;13.90;99.90;;;;;;5000930;28;19925;-80
2021/07/02 02:29:04;;;;;;;;;;;13.90;99.90;;;;;;5016655;28;19913;-81
2021/07/02 02:31:30;;;;;;;;;;;13.80;99.90;;;;;;5003391;28;19921;-81
2021/07/02 02:33:55;;;;;;;;;;;13.80;99.90;;;;;;5013791;28;20348;-81
2021/07/02 02:36:21;;;;;;;;;;;13.70;99.90;;;;;;5005460;28;19937;-81
2021/07/02 02:38:46;;;;;;;;;;;13.60;99.90;;;;;;5012298;28;20361;-81
2021/07/02 02:41:12;;;;;;;;;;;13.60;99.90;;;;;;4998869;28;19917;-80
2021/07/02 02:43:38;;;;;;;;;;;13.50;99.90;;;;;;4997454;28;19914;-80
2021/07/02 02:46:04;;;;;;;;;;;13.50;99.90;;;;;;5005052;28;19914;-80
2021/07/02 02:48:29;;;;;;;;;;;13.40;99.90;;;;;;5032583;28;19909;-80
2021/07/02 02:50:55;;;;;;;;;;;13.40;99.90;;;;;;4999288;28;19921;-80
2021/07/02 02:53:20;;;;;;;;;;;13.30;99.90;;;;;;4996961;28;20262;-81
2021/07/02 02:55:46;;;;;;;;;;;13.30;99.90;;;;;;4997933;28;19926;-80
2021/07/02 02:58:11;;;;;;;;;;;13.20;99.90;;;;;;4997156;28;19914;-80
2021/07/02 03:00:37;;;;;;;;;;;13.20;99.90;;;;;;4997044;28;19957;-80
2021/07/02 03:03:02;;;;;;;;;;;13.10;99.90;;;;;;4996627;28;19913;-80
2021/07/02 03:05:28;;;;;;;;;;;13.10;99.90;;;;;;4998052;28;20438;-81
2021/07/02 03:07:55;;;;;;;;;;;13.10;99.90;;;;;;4997505;28;19956;-80
2021/07/02 03:10:21;;;;;;;;;;;13.10;99.90;;;;;;5004519;28;19914;-80
2021/07/02 03:12:46;;;;;;;;;;;13.00;99.90;;;;;;4995440;28;20269;-81
2021/07/02 03:15:12;;;;;;;;;;;13.00;99.90;;;;;;5004205;28;20297;-80
2021/07/02 03:17:37;;;;;;;;;;;13.00;99.90;;;;;;4996879;28;20407;-80
2021/07/02 03:20:05;;;;;;;;;;;13.00;99.90;;;;;;5004585;28;19914;-81
2021/07/02 03:22:31;;;;;;;;;;;12.90;99.90;;;;;;4994954;28;19913;-81
2021/07/02 03:24:56;;;;;;;;;;;12.90;99.90;;;;;;4994557;28;19928;-80
2021/07/02 03:27:21;;;;;;;;;;;12.90;99.90;;;;;;4995664;28;19910;-79
2021/07/02 03:29:47;;;;;;;;;;;12.90;99.90;;;;;;4998663;28;19924;-80
2021/07/02 03:32:12;;;;;;;;;;;12.90;99.90;;;;;;4996214;28;19921;-80
2021/07/02 03:34:38;;;;;;;;;;;12.80;99.90;;;;;;4998958;28;19917;-81
2021/07/02 03:37:04;;;;;;;;;;;12.80;99.90;;;;;;4996407;28;19913;-80
2021/07/02 03:39:30;;;;;;;;;;;12.80;99.90;;;;;;4996685;28;19921;-81
2021/07/02 03:41:55;;;;;;;;;;;12.80;99.90;;;;;;4998856;28;19941;-80
2021/07/02 03:44:21;;;;;;;;;;;12.80;99.90;;;;;;5002909;28;19910;-80
2021/07/02 03:46:46;;;;;;;;;;;12.80;99.90;;;;;;4998822;28;19914;-81
2021/07/02 03:49:11;;;;;;;;;;;12.80;99.90;;;;;;4996583;28;20672;-80
2021/07/02 03:51:37;;;;;;;;;;;12.90;99.90;;;;;;4999315;28;19918;-81
2021/07/02 03:54:02;;;;;;;;;;;12.90;99.90;;;;;;5003096;28;19917;-80
2021/07/02 03:56:28;;;;;;;;;;;12.90;99.90;;;;;;5000604;28;20257;-80
2021/07/02 03:58:53;;;;;;;;;;;13.00;99.90;;;;;;5003253;28;19977;-80
2021/07/02 04:01:19;;;;;;;;;;;13.00;99.90;;;;;;5001020;28;19921;-80
2021/07/02 04:03:44;;;;;;;;;;;13.00;99.90;;;;;;5005575;28;19914;-81
2021/07/02 04:06:10;;;;;;;;;;;13.00;99.90;;;;;;5009154;28;20293;-81
2021/07/02 04:08:36;;;;;;;;;;;13.10;99.90;;;;;;5013036;28;19981;-80
2021/07/02 04:11:03;;;;;;;;;;;13.20;99.90;;;;;;4999954;28;19913;-80
2021/07/02 04:13:28;;;;;;;;;;;13.20;99.90;;;;;;5000117;28;19914;-81
2021/07/02 04:15:54;;;;;;;;;;;13.30;99.90;;;;;;5006387;28;19920;-81
2021/07/02 04:18:20;;;;;;;;;;;13.30;99.90;;;;;;5005287;28;19960;-81
2021/07/02 04:20:46;;;;;;;;;;;13.40;99.90;;;;;;5006445;28;19913;-81
2021/07/02 04:23:11;;;;;;;;;;;13.50;99.90;;;;;;5005533;28;19917;-81
2021/07/02 04:25:37;;;;;;;;;;;13.60;99.90;;;;;;5003738;28;20015;-81
2021/07/02 04:28:02;;;;;;;;;;;13.70;99.90;;;;;;5007786;28;19936;-80
2021/07/02 04:30:28;;;;;;;;;;;13.80;99.90;;;;;;5001724;28;19914;-80
2021/07/02 04:32:53;;;;;;;;;;;13.90;99.90;;;;;;5009886;28;19921;-81
2021/07/02 04:35:19;;;;;;;;;;;14.00;99.90;;;;;;5015191;28;20488;-81
2021/07/02 04:37:44;;;;;;;;;;;14.10;99.90;;;;;;5011613;28;19914;-80
2021/07/02 04:40:10;;;;;;;;;;;14.20;99.90;;;;;;5013189;28;19913;-80
2021/07/02 04:42:36;;;;;;;;;;;14.40;99.90;;;;;;5013114;28;20281;-80
2021/07/02 04:45:01;;;;;;;;;;;14.50;99.90;;;;;;5026633;28;19913;-80
2021/07/02 04:47:27;;;;;;;;;;;14.70;99.90;;;;;;5015004;28;20473;-80
2021/07/02 04:49:52;;;;;;;;;;;14.80;99.90;;;;;;5009636;28;19925;-81
2021/07/02 04:52:18;;;;;;;;;;;15.00;99.90;;;;;;5016427;28;20311;-80
2021/07/02 04:54:43;;;;;;;;;;;15.10;99.90;;;;;;4996295;28;19941;-81
2021/07/02 04:57:09;;;;;;;;;;;15.30;99.90;;;;;;4999423;28;19910;-81
2021/07/02 04:59:37;;;;;;;;;;;15.50;99.90;;;;;;5005076;28;19989;-81
2021/07/02 05:02:03;;;;;;;;;;;15.60;99.90;;;;;;5018759;28;20383;-81
2021/07/02 05:04:28;;;;;;;;;;;15.80;99.90;;;;;;4998074;28;19921;-80
2021/07/02 05:06:55;;;;;;;;;;;15.90;99.90;;;;;;4999529;28;19937;-81
2021/07/02 05:09:21;;;;;;;;;;;16.00;99.90;;;;;;5014533;28;20400;-81
2021/07/02 05:11:47;;;;;;;;;;;16.10;99.90;;;;;;5008012;28;19921;-81
2021/07/02 05:14:13;;;;;;;;;;;16.10;99.90;;;;;;5012715;28;19913;-80
2021/07/02 05:16:38;;;;;;;;;;;16.20;99.90;;;;;;5001490;28;20016;-82
2021/07/02 05:19:04;;;;;;;;;;;16.20;99.90;;;;;;4997792;28;20313;-81
2021/07/02 05:21:29;;;;;;;;;;;16.30;99.90;;;;;;4999247;28;19989;-82
2021/07/02 05:23:55;;;;;;;;;;;16.30;99.90;;;;;;4998285;28;19910;-82
2021/07/02 05:26:20;;;;;;;;;;;16.40;99.90;;;;;;4999069;28;19910;-81
2021/07/02 05:28:46;;;;;;;;;;;16.60;99.90;;;;;;4997496;28;19910;-81
2021/07/02 05:31:11;;;;;;;;;;;16.70;99.90;;;;;;4998519;28;19961;-82
2021/07/02 05:33:37;;;;;;;;;;;16.80;99.90;;;;;;4996976;28;19924;-80
2021/07/02 05:36:02;;;;;;;;;;;16.80;99.90;;;;;;5012047;28;19914;-81
2021/07/02 05:38:28;;;;;;;;;;;16.80;99.90;;;;;;4999688;28;19937;-81
2021/07/02 05:40:55;;;;;;;;;;;16.80;99.90;;;;;;4999498;28;19925;-81
2021/07/02 05:43:21;;;;;;;;;;;16.80;99.90;;;;;;4997725;28;20369;-78
2021/07/02 05:45:47;;;;;;;;;;;16.80;99.90;;;;;;4997748;28;19918;-82
2021/07/02 05:48:13;;;;;;;;;;;16.70;99.90;;;;;;4997627;28;19917;-82
2021/07/02 05:50:39;;;;;;;;;;;16.70;99.90;;;;;;4997881;28;19914;-82
2021/07/02 05:53:04;;;;;;;;;;;16.70;99.90;;;;;;4997270;28;19917;-81
2021/07/02 05:55:30;;;;;;;;;;;16.80;99.90;;;;;;4996950;28;19914;-81
2021/07/02 05:57:55;;;;;;;;;;;16.90;99.90;;;;;;4999138;28;19921;-82
2021/07/02 06:00:21;;;;;;;;;;;17.00;99.90;;;;;;4997072;28;20364;-81
2021/07/02 06:02:47;;;;;;;;;;;17.10;99.90;;;;;;4998846;28;19929;-82
2021/07/02 06:05:12;;;;;;;;;;;17.20;99.90;;;;;;4991715;28;20373;-82
2021/07/02 06:07:45;;;;;;;;;;;17.20;99.90;;;;;;4993453;28;19937;-81
2021/07/02 06:10:11;;;;;;;;;;;17.20;99.90;;;;;;5001266;28;19913;-82
2021/07/02 06:12:36;;;;;;;;;;;17.20;99.90;;;;;;4998282;28;19942;-82
2021/07/02 06:15:02;;;;;;;;;;;17.30;99.90;;;;;;5000380;28;19921;-82
2021/07/02 06:17:27;;;;;;;;;;;17.30;99.90;;;;;;5006003;28;19913;-81
2021/07/02 06:19:53;;;;;;;;;;;17.50;99.90;;;;;;4995811;28;20001;-81
2021/07/02 06:22:18;;;;;;;;;;;17.70;99.90;;;;;;4997509;28;20028;-81
2021/07/02 06:24:44;;;;;;;;;;;18.00;99.90;;;;;;5002767;28;19920;-82
2021/07/02 06:27:09;;;;;;;;;;;18.40;99.90;;;;;;4996343;28;19914;-81
2021/07/02 06:29:35;;;;;;;;;;;19.10;99.90;;;;;;4999297;28;19992;-81
2021/07/02 06:32:00;;;;;;;;;;;19.90;99.90;;;;;;4999401;28;19989;-81
2021/07/02 06:34:25;;;;;;;;;;;20.90;99.90;;;;;;4999153;28;20328;-83
2021/07/02 06:36:51;;;;;;;;;;;21.40;99.90;;;;;;5013890;28;19937;-80
2021/07/02 06:39:16;;;;;;;;;;;21.30;99.90;;;;;;5005872;28;20437;-82
2021/07/02 06:41:42;;;;;;;;;;;21.30;99.90;;;;;;5001488;28;19921;-83
2021/07/02 06:44:07;;;;;;;;;;;21.20;99.90;;;;;;5000411;28;19977;-80
2021/07/02 06:46:33;;;;;;;;;;;21.10;99.90;;;;;;4996240;28;19921;-81
2021/07/02 06:48:59;;;;;;;;;;;21.00;99.90;;;;;;5015707;28;19920;-81
2021/07/02 06:51:25;;;;;;;;;;;20.90;99.90;;;;;;5013563;28;19913;-82
2021/07/02 06:53:52;;;;;;;;;;;21.00;99.90;;;;;;5011561;28;19921;-81
2021/07/02 06:56:17;;;;;;;;;;;21.40;99.90;;;;;;5007820;28;19944;-82
2021/07/02 06:58:43;;;;;;;;;;;21.70;99.90;;;;;;4998254;28;19949;-81
2021/07/02 07:01:09;;;;;;;;;;;21.80;99.90;;;;;;4998899;28;19925;-81
2021/07/02 07:03:34;;;;;;;;;;;21.70;99.90;;;;;;5010641;28;19913;-82
2021/07/02 07:06:00;;;;;;;;;;;21.40;99.90;;;;;;5001047;28;19921;-82
2021/07/02 07:08:25;;;;;;;;;;;21.10;99.90;;;;;;5006143;28;19914;-81
2021/07/02 07:10:51;;;;;;;;;;;20.70;99.90;;;;;;5006148;28;19996;-81
2021/07/02 07:13:16;;;;;;;;;;;20.40;99.90;;;;;;4995301;28;19917;-82
2021/07/02 07:15:42;;;;;;;;;;;20.20;99.90;;;;;;5000162;28;20413;-82
2021/07/02 07:18:07;;;;;;;;;;;20.10;99.90;;;;;;5013661;28;20373;-81
2021/07/02 07:20:33;;;;;;;;;;;20.00;99.90;;;;;;4999550;28;19921;-82
2021/07/02 07:22:58;;;;;;;;;;;19.90;99.90;;;;;;5000607;28;20387;-81
2021/07/02 07:25:25;;;;;;;;;;;19.90;99.90;;;;;;5014590;28;19917;-81
2021/07/02 07:27:51;;;;;;;;;;;19.90;99.90;;;;;;4998860;28;20380;-82
2021/07/02 07:30:17;;;;;;;;;;;20.10;99.90;;;;;;4995433;28;19976;-81
2021/07/02 07:32:42;;;;;;;;;;;20.30;99.90;;;;;;4990737;28;19926;-82
2021/07/02 07:37:53;;;;;;;;;;;21.10;99.90;;;;;;4996399;28;19920;-81
2021/07/02 07:40:19;;;;;;;;;;;21.70;99.90;;;;;;4996677;28;19972;-82
2021/07/02 07:42:44;;;;;;;;;;;22.30;99.90;;;;;;4988374;28;20374;-82
2021/07/02 07:45:13;;;;;;;;;;;22.70;99.90;;;;;;5004982;28;19949;-82
2021/07/02 07:47:38;;;;;;;;;;;23.00;99.90;;;;;;4999666;28;19909;-82
2021/07/02 07:50:09;;;;;;;;;;;23.20;99.90;;;;;;4994827;28;19914;-82
2021/07/02 07:55:03;;;;;;;;;;;23.70;99.90;;;;;;5004294;28;19921;-82
2021/07/02 07:57:29;;;;;;;;;;;23.80;99.90;;;;;;5008272;28;20004;-81
2021/07/02 07:59:54;;;;;;;;;;;23.80;99.90;;;;;;5002463;28;19964;-82
2021/07/02 08:02:20;;;;;;;;;;;23.80;99.90;;;;;;4998432;28;20375;-82
2021/07/02 08:04:48;;;;;;;;;;;23.80;99.90;;;;;;4998394;28;19914;-82
2021/07/02 08:07:13;;;;;;;;;;;23.80;99.90;;;;;;5002086;28;19918;-82
2021/07/02 08:09:41;;;;;;;;;;;23.80;99.90;;;;;;5000380;28;19917;-82
2021/07/02 08:12:11;;;;;;;;;;;23.90;99.90;;;;;;5004691;28;20356;-81
2021/07/02 08:14:39;;;;;;;;;;;24.00;99.90;;;;;;5008801;28;20021;-82
2021/07/02 08:17:11;;;;;;;;;;;24.10;99.90;;;;;;4998626;28;19914;-82
2021/07/02 08:38:23;;;;;;;;;;;;;;;;;;;;;
2021/07/02 08:58:25;;;;;;;;;;;;;;;;;;;;;
2021/07/02 09:16:44;;;;;;;;;;;;;;;;;;;;;
2021/07/02 13:45:15;;;;;;;;;;;30.60;56.70;;;;;;1484259;26;19925;-85
2021/07/02 13:47:40;;;;;;;;;;;30.50;56.90;;;;;;5031091;28;19914;-85
2021/07/02 13:50:06;;;;;;;;;;;30.60;57.10;;;;;;5015533;28;19984;-85
2021/07/02 13:52:32;;;;;;;;;;;30.60;57.20;;;;;;5016725;28;19920;-85
2021/07/02 13:55:00;;;;;;;;;;;30.50;57.20;;;;;;5016779;28;19928;-85
2021/07/02 14:00:29;;;;;;;;;;;29.70;57.30;;;;;;5025611;28;19913;-86
2021/07/02 14:02:59;;;;;;;;;;;29.00;57.70;;;;;;5027402;28;19979;-85
2021/07/02 14:05:25;;;;;;;;;;;28.80;57.90;;;;;;5029005;28;19913;-85
2021/07/02 14:08:00;;;;;;;;;;;28.70;57.90;;;;;;5015969;28;19910;-85
2021/07/02 14:10:26;;;;;;;;;;;28.80;58.00;;;;;;5012609;28;19921;-86
2021/07/02 14:12:51;;;;;;;;;;;28.90;58.20;;;;;;5039510;28;19917;-85
2021/07/02 14:15:24;;;;;;;;;;;28.90;58.30;;;;;;5018135;28;19917;-85
2021/07/02 14:17:52;;;;;;;;;;;29.00;58.40;;;;;;5022262;28;19910;-85
2021/07/02 14:20:25;;;;;;;;;;;29.20;58.50;;;;;;5023260;28;19918;-85
2021/07/02 14:23:01;;;;;;;;;;;29.60;58.70;;;;;;5033720;28;20429;-86
2021/07/02 14:25:32;;;;;;;;;;;29.70;58.50;;;;;;5045475;28;19952;-85
2021/07/02 14:30:56;;;;;;;;;;;29.70;58.40;;;;;;5007762;28;19921;-84
2021/07/02 14:33:41;;;;;;;;;;;29.30;58.60;;;;;;5006569;28;19909;-86
2021/07/02 14:36:09;;;;;;;;;;;29.20;59.00;;;;;;4998938;28;19913;-86
2021/07/02 14:38:37;;;;;;;;;;;29.10;59.10;;;;;;5028983;28;19947;-84
2021/07/02 14:41:04;;;;;;;;;;;29.00;59.40;;;;;;5036074;28;21630;-87
2021/07/02 14:43:47;;;;;;;;;;;28.90;59.60;;;;;;5026086;28;19941;-85
2021/07/02 14:46:15;;;;;;;;;;;28.60;59.80;;;;;;5043002;28;20059;-84
2021/07/02 14:48:43;;;;;;;;;;;28.40;59.90;;;;;;5025530;28;20528;-84
2021/07/02 14:51:20;;;;;;;;;;;28.30;60.20;;;;;;5014361;28;19925;-84
2021/07/02 14:53:50;;;;;;;;;;;28.10;60.20;;;;;;5010792;28;19945;-84
2021/07/02 14:56:15;;;;;;;;;;;28.00;60.30;;;;;;5026726;28;19909;-85
2021/07/02 14:58:41;;;;;;;;;;;27.80;60.40;;;;;;5011896;28;19920;-84
2021/07/02 15:01:06;;;;;;;;;;;27.80;60.80;;;;;;5014856;28;19914;-84
2021/07/02 15:03:32;;;;;;;;;;;27.90;61.10;;;;;;5031888;28;20364;-84
2021/07/02 15:05:58;;;;;;;;;;;27.90;61.20;;;;;;5011949;28;19918;-84
2021/07/02 15:08:23;;;;;;;;;;;27.90;61.20;;;;;;5015008;28;19944;-84
2021/07/02 15:10:49;;;;;;;;;;;28.00;61.40;;;;;;5007567;28;19925;-84
2021/07/02 15:13:14;;;;;;;;;;;28.10;61.40;;;;;;5015149;28;19917;-85
2021/07/02 15:15:40;;;;;;;;;;;28.20;61.50;;;;;;5004063;28;19914;-84
2021/07/02 15:18:05;;;;;;;;;;;28.30;61.70;;;;;;5024767;28;20004;-84
2021/07/02 15:20:31;;;;;;;;;;;28.40;61.60;;;;;;5021432;28;19920;-84
2021/07/02 15:22:56;;;;;;;;;;;28.30;61.50;;;;;;5005133;28;19972;-84
2021/07/02 15:25:22;;;;;;;;;;;28.30;61.70;;;;;;5040900;28;19914;-84
2021/07/02 15:27:48;;;;;;;;;;;28.40;61.80;;;;;;5012452;28;19987;-84
2021/07/02 15:30:35;;;;;;;;;;;28.60;61.90;;;;;;5011642;28;19921;-84
2021/07/02 15:33:01;;;;;;;;;;;28.70;61.70;;;;;;5017549;28;19956;-87
2021/07/02 15:35:26;;;;;;;;;;;28.70;61.80;;;;;;5031383;28;19913;-85
2021/07/02 15:37:53;;;;;;;;;;;28.50;62.20;;;;;;5012880;28;20297;-85
2021/07/02 15:40:19;;;;;;;;;;;28.50;62.40;;;;;;5017999;28;20024;-85
2021/07/02 15:42:44;;;;;;;;;;;28.50;62.60;;;;;;5016589;28;20360;-85
2021/07/02 15:45:10;;;;;;;;;;;28.40;62.50;;;;;;5026766;28;19913;-85
2021/07/02 15:47:35;;;;;;;;;;;28.10;62.40;;;;;;5016486;28;19914;-86
2021/07/02 15:50:01;;;;;;;;;;;28.00;62.80;;;;;;5025253;28;19921;-85
2021/07/02 15:52:27;;;;;;;;;;;28.00;63.20;;;;;;5026536;28;19913;-84
2021/07/02 15:54:57;;;;;;;;;;;27.90;63.20;;;;;;5020065;28;21058;-86
2021/07/02 15:57:25;;;;;;;;;;;27.90;63.50;;;;;;5022026;28;19928;-84
2021/07/02 15:59:51;;;;;;;;;;;27.80;63.40;;;;;;5032546;28;19980;-84
2021/07/02 16:02:16;;;;;;;;;;;27.60;63.50;;;;;;5023458;28;19918;-85
2021/07/02 16:04:42;;;;;;;;;;;27.40;63.90;;;;;;5023244;28;19910;-84
2021/07/02 16:07:10;;;;;;;;;;;27.20;64.20;;;;;;5022166;28;19925;-84
2021/07/02 16:09:55;;;;;;;;;;;27.10;64.50;;;;;;5047322;28;19917;-84
2021/07/02 16:12:43;;;;;;;;;;;27.10;64.60;;;;;;5026026;28;20385;-84
2021/07/02 16:15:12;;;;;;;;;;;27.20;64.70;;;;;;5001849;28;20004;-84
2021/07/02 16:17:43;;;;;;;;;;;27.30;64.90;;;;;;5018465;28;19917;-84
2021/07/02 16:20:08;;;;;;;;;;;27.30;64.90;;;;;;5033426;28;19917;-84
2021/07/02 16:22:34;;;;;;;;;;;27.30;65.00;;;;;;5027798;28;19924;-84
2021/07/02 16:25:00;;;;;;;;;;;27.30;65.00;;;;;;5036231;28;20044;-84
2021/07/02 16:27:25;;;;;;;;;;;27.30;65.10;;;;;;5022664;28;19914;-84
2021/07/02 16:29:58;;;;;;;;;;;27.20;65.00;;;;;;5031186;28;19913;-84
2021/07/02 16:32:24;;;;;;;;;;;27.10;65.10;;;;;;5025019;28;19976;-85
2021/07/02 16:34:49;;;;;;;;;;;27.00;65.30;;;;;;5016796;28;19952;-86
2021/07/02 16:37:17;;;;;;;;;;;26.90;65.40;;;;;;5038008;28;19913;-84
2021/07/02 16:39:45;;;;;;;;;;;26.90;65.70;;;;;;5026910;28;19953;-84
2021/07/02 16:42:19;;;;;;;;;;;26.90;65.80;;;;;;5005601;28;20411;-84
2021/07/02 16:45:15;;;;;;;;;;;;;;;;;;;;;
2021/07/02 16:50:49;;;;;;;;;;;26.80;66.10;;;;;;5028373;28;20296;-84
2021/07/02 16:53:40;;;;;;;;;;;26.80;66.20;;;;;;5038626;28;20335;-84
2021/07/02 16:56:05;;;;;;;;;;;26.70;66.30;;;;;;5018145;28;19917;-85
2021/07/02 16:58:31;;;;;;;;;;;26.70;66.50;;;;;;5033907;28;19909;-85
2021/07/02 17:00:57;;;;;;;;;;;26.60;66.50;;;;;;5044977;28;19914;-85
2021/07/02 17:03:25;;;;;;;;;;;26.50;66.60;;;;;;5013501;28;20411;-84
2021/07/02 17:05:51;;;;;;;;;;;26.40;66.80;;;;;;5028027;28;19924;-84
2021/07/02 17:08:17;;;;;;;;;;;26.30;67.00;;;;;;5038470;28;20344;-84
2021/07/02 17:10:42;;;;;;;;;;;26.10;67.10;;;;;;5016939;28;19936;-84
2021/07/02 17:13:10;;;;;;;;;;;26.00;67.40;;;;;;5024441;28;19909;-85
2021/07/02 17:15:36;;;;;;;;;;;25.90;67.70;;;;;;5029248;28;19987;-84
2021/07/02 17:18:01;;;;;;;;;;;25.80;67.90;;;;;;5032825;28;20016;-84
2021/07/02 17:20:27;;;;;;;;;;;25.70;68.00;;;;;;5020884;28;19920;-85
2021/07/02 17:22:53;;;;;;;;;;;25.60;68.20;;;;;;5020654;28;19913;-85
2021/07/02 17:25:21;;;;;;;;;;;25.60;68.40;;;;;;5022872;28;20361;-85
2021/07/02 17:27:46;;;;;;;;;;;25.50;68.40;;;;;;5041656;28;20365;-84
2021/07/02 17:30:14;;;;;;;;;;;25.40;68.60;;;;;;5022114;28;19993;-83
2021/07/02 17:32:40;;;;;;;;;;;25.30;68.80;;;;;;5031927;28;19918;-83
2021/07/02 17:35:09;;;;;;;;;;;25.30;69.00;;;;;;5011959;28;20030;-84
2021/07/02 17:37:34;;;;;;;;;;;25.30;70.00;;;;;;5029776;28;19913;-84
2021/07/02 17:40:04;;;;;;;;;;;25.20;69.20;;;;;;5031509;28;19913;-84
2021/07/02 17:42:30;;;;;;;;;;;25.10;69.30;;;;;;5030732;28;19914;-84
2021/07/02 17:44:56;;;;;;;;;;;25.10;69.50;;;;;;5025547;28;20012;-84
2021/07/02 17:47:21;;;;;;;;;;;25.10;69.70;;;;;;5021118;28;19927;-84
2021/07/02 17:49:47;;;;;;;;;;;25.00;69.80;;;;;;5024852;28;20041;-84
2021/07/02 17:52:12;;;;;;;;;;;24.90;69.90;;;;;;5022562;28;19918;-83
2021/07/02 17:54:38;;;;;;;;;;;24.70;70.00;;;;;;5048866;28;19920;-83
2021/07/02 17:57:05;;;;;;;;;;;24.70;70.30;;;;;;5037079;28;19921;-83
2021/07/02 17:59:31;;;;;;;;;;;24.50;70.40;;;;;;5037199;28;19910;-84
2021/07/02 18:01:57;;;;;;;;;;;24.50;70.80;;;;;;5040768;28;19916;-83
2021/07/02 18:04:22;;;;;;;;;;;24.40;70.90;;;;;;5039354;28;19913;-83
2021/07/02 18:06:48;;;;;;;;;;;24.40;71.10;;;;;;5017815;28;19936;-84
2021/07/02 18:09:13;;;;;;;;;;;24.30;71.20;;;;;;5027871;28;19921;-83
2021/07/02 18:11:39;;;;;;;;;;;24.30;71.40;;;;;;5020317;28;19924;-84
2021/07/02 18:14:07;;;;;;;;;;;24.20;71.40;;;;;;5033375;28;19969;-84
2021/07/02 18:16:46;;;;;;;;;;;;;;;;;;;;;
2021/07/02 18:19:14;;;;;;;;;;;24.10;71.70;;;;;;5010464;28;19996;-84
2021/07/02 18:21:42;;;;;;;;;;;24.00;71.80;;;;;;5023245;28;19935;-84
2021/07/02 18:24:08;;;;;;;;;;;24.00;72.10;;;;;;5041369;28;19940;-83
2021/07/02 18:26:33;;;;;;;;;;;23.90;72.20;;;;;;5003761;28;19914;-84
2021/07/02 18:28:59;;;;;;;;;;;23.90;72.40;;;;;;5018849;28;19917;-84
2021/07/02 18:31:24;;;;;;;;;;;23.70;72.40;;;;;;5022581;28;19909;-84
2021/07/02 18:33:50;;;;;;;;;;;23.60;72.60;;;;;;5025999;28;19920;-83
2021/07/02 18:36:16;;;;;;;;;;;23.60;72.80;;;;;;5020808;28;19946;-84
2021/07/02 18:38:44;;;;;;;;;;;23.40;72.80;;;;;;5022135;28;19910;-84
2021/07/02 18:41:12;;;;;;;;;;;23.30;73.10;;;;;;5021775;28;19920;-83
2021/07/02 18:43:38;;;;;;;;;;;23.20;73.40;;;;;;5018679;28;19918;-84
2021/07/02 18:46:06;;;;;;;;;;;23.20;73.70;;;;;;5020632;28;19951;-84
2021/07/02 18:48:32;;;;;;;;;;;23.10;73.80;;;;;;5027120;28;19913;-84
2021/07/02 18:50:57;;;;;;;;;;;23.10;74.00;;;;;;5019722;28;19917;-84
2021/07/02 18:53:23;;;;;;;;;;;23.10;74.10;;;;;;5017208;28;20035;-83
2021/07/02 18:55:49;;;;;;;;;;;23.00;74.20;;;;;;5019796;28;19909;-83
2021/07/02 18:58:15;;;;;;;;;;;22.90;74.30;;;;;;5020215;28;20427;-84
2021/07/02 19:00:40;;;;;;;;;;;22.90;74.50;;;;;;5036050;28;20011;-83
2021/07/02 19:03:06;;;;;;;;;;;22.80;74.60;;;;;;5038779;28;19959;-84
2021/07/02 19:05:31;;;;;;;;;;;22.70;74.60;;;;;;5023081;28;20009;-84
2021/07/02 19:07:57;;;;;;;;;;;22.70;74.90;;;;;;5018256;28;19917;-84
2021/07/02 19:10:22;;;;;;;;;;;22.60;75.10;;;;;;5019972;28;19937;-84
2021/07/02 19:12:48;;;;;;;;;;;22.40;75.40;;;;;;5011991;28;20436;-84
2021/07/02 19:15:15;;;;;;;;;;;22.20;75.70;;;;;;5024031;28;19968;-84
2021/07/02 19:17:41;;;;;;;;;;;22.10;76.20;;;;;;5042942;28;19913;-84
2021/07/02 19:20:07;;;;;;;;;;;21.90;76.70;;;;;;5030440;28;19924;-84
2021/07/02 19:22:33;;;;;;;;;;;21.80;77.30;;;;;;5028178;28;20002;-83
2021/07/02 19:24:58;;;;;;;;;;;21.70;77.60;;;;;;5026521;28;19913;-84
2021/07/02 19:27:24;;;;;;;;;;;21.60;77.90;;;;;;5030089;28;19919;-84
2021/07/02 19:29:49;;;;;;;;;;;21.50;78.10;;;;;;5027464;28;20001;-84
2021/07/02 19:32:15;;;;;;;;;;;21.40;78.30;;;;;;5028504;28;19914;-84
2021/07/02 19:34:41;;;;;;;;;;;21.40;78.60;;;;;;5024985;28;19913;-83
2021/07/02 19:37:06;;;;;;;;;;;21.30;78.70;;;;;;5028838;28;19913;-83
2021/07/02 19:39:31;;;;;;;;;;;21.30;78.90;;;;;;5042779;28;19924;-83
2021/07/02 19:41:57;;;;;;;;;;;21.20;79.00;;;;;;5025584;28;19925;-84
2021/07/02 19:44:23;;;;;;;;;;;21.10;79.10;;;;;;5023412;28;19960;-84
2021/07/02 19:46:48;;;;;;;;;;;21.10;79.60;;;;;;5024718;28;19925;-83
2021/07/02 19:49:15;;;;;;;;;;;21.00;79.80;;;;;;5023521;28;19921;-82
2021/07/02 19:51:41;;;;;;;;;;;21.00;80.00;;;;;;5025998;28;19964;-84
2021/07/02 19:54:06;;;;;;;;;;;21.00;80.10;;;;;;5040372;28;19917;-83
2021/07/02 19:56:32;;;;;;;;;;;20.90;80.30;;;;;;5036666;28;19913;-83
2021/07/02 19:58:58;;;;;;;;;;;20.90;80.60;;;;;;5036956;28;19913;-83
2021/07/02 20:01:23;;;;;;;;;;;20.80;80.70;;;;;;5041723;28;19936;-83